sensor_id;sensor_type;location;lat;lon;timestamp;pressure;altitude;pressure_sealevel;temperature;humidity
21623;BME280;10973;46.706;12.340;2023-04-21T00:01:36;87062.13;;;7.77;60.94
21623;BME280;10973;46.706;12.340;2023-04-21T00:04:03;87063.63;;;7.78;60.98
21623;BME280;10973;46.706;12.340;2023-04-21T00:06:30;87059.50;;;7.77;60.82
21623;BME280;10973;46.706;12.340;2023-04-21T00:08:58;87055.78;;;7.81;60.45
21623;BME280;10973;46.706;12.340;2023-04-21T00:11:25;87053.91;;;7.78;60.57
21623;BME280;10973;46.706;12.340;2023-04-21T00:13:52;87050.53;;;7.78;60.65
21623;BME280;10973;46.706;12.340;2023-04-21T00:16:20;87049.06;;;7.80;60.75
21623;BME280;10973;46.706;12.340;2023-04-21T00:18:47;87045.66;;;7.80;60.42
21623;BME280;10973;46.706;12.340;2023-04-21T00:21:14;87052.44;;;7.81;60.37
21623;BME280;10973;46.706;12.340;2023-04-21T00:23:42;87051.63;;;7.77;60.71
21623;BME280;10973;46.706;12.340;2023-04-21T00:26:09;87049.81;;;7.81;60.81
21623;BME280;10973;46.706;12.340;2023-04-21T00:28:36;87039.66;;;7.76;60.97
21623;BME280;10973;46.706;12.340;2023-04-21T00:31:04;87042.66;;;7.78;61.11
21623;BME280;10973;46.706;12.340;2023-04-21T00:33:31;87039.66;;;7.79;61.13
21623;BME280;10973;46.706;12.340;2023-04-21T00:35:58;87043.41;;;7.78;61.03
21623;BME280;10973;46.706;12.340;2023-04-21T00:38:26;87041.56;;;7.79;60.98
21623;BME280;10973;46.706;12.340;2023-04-21T00:40:53;87041.13;;;7.77;60.76
21623;BME280;10973;46.706;12.340;2023-04-21T00:43:20;87042.97;;;7.73;60.69
21623;BME280;10973;46.706;12.340;2023-04-21T00:45:48;87044.81;;;7.69;60.55
21623;BME280;10973;46.706;12.340;2023-04-21T00:48:15;87049.69;;;7.70;60.42
21623;BME280;10973;46.706;12.340;2023-04-21T00:50:44;87047.84;;;7.71;60.74
21623;BME280;10973;46.706;12.340;2023-04-21T00:53:14;87042.19;;;7.69;60.80
21623;BME280;10973;46.706;12.340;2023-04-21T00:55:41;87043.56;;;7.56;61.23
21623;BME280;10973;46.706;12.340;2023-04-21T00:58:09;87038.69;;;7.54;61.13
21623;BME280;10973;46.706;12.340;2023-04-21T01:00:37;87043.19;;;7.54;60.86
21623;BME280;10973;46.706;12.340;2023-04-21T01:03:05;87045.84;;;7.57;60.71
21623;BME280;10973;46.706;12.340;2023-04-21T01:05:33;87043.19;;;7.54;60.96
21623;BME280;10973;46.706;12.340;2023-04-21T01:08:01;87045.47;;;7.59;60.72
21623;BME280;10973;46.706;12.340;2023-04-21T01:10:28;87049.97;;;7.58;60.44
21623;BME280;10973;46.706;12.340;2023-04-21T01:12:56;87049.59;;;7.60;60.63
21623;BME280;10973;46.706;12.340;2023-04-21T01:15:23;87054.47;;;7.61;60.61
21623;BME280;10973;46.706;12.340;2023-04-21T01:17:50;87051.50;;;7.63;60.62
21623;BME280;10973;46.706;12.340;2023-04-21T01:20:18;87050.75;;;7.62;60.66
21623;BME280;10973;46.706;12.340;2023-04-21T01:22:45;87050.00;;;7.62;60.54
21623;BME280;10973;46.706;12.340;2023-04-21T01:25:13;87053.78;;;7.64;60.39
21623;BME280;10973;46.706;12.340;2023-04-21T01:27:40;87046.97;;;7.60;60.25
21623;BME280;10973;46.706;12.340;2023-04-21T01:30:08;87056.72;;;7.59;60.18
21623;BME280;10973;46.706;12.340;2023-04-21T01:32:35;87055.25;;;7.62;60.11
21623;BME280;10973;46.706;12.340;2023-04-21T01:35:03;87051.50;;;7.63;60.37
21623;BME280;10973;46.706;12.340;2023-04-21T01:37:32;87051.06;;;7.57;60.53
21623;BME280;10973;46.706;12.340;2023-04-21T01:40:06;87055.84;;;7.48;60.98
21623;BME280;10973;46.706;12.340;2023-04-21T01:42:38;87056.25;;;7.50;61.03
21623;BME280;10973;46.706;12.340;2023-04-21T01:45:06;87053.66;;;7.54;60.57
21623;BME280;10973;46.706;12.340;2023-04-21T01:47:34;87063.00;;;7.51;60.72
21623;BME280;10973;46.706;12.340;2023-04-21T01:50:01;87054.38;;;7.51;60.46
21623;BME280;10973;46.706;12.340;2023-04-21T01:52:29;87051.75;;;7.51;60.70
21623;BME280;10973;46.706;12.340;2023-04-21T01:54:56;87037.50;;;7.48;60.63
21623;BME280;10973;46.706;12.340;2023-04-21T01:57:23;87040.88;;;7.49;60.53
21623;BME280;10973;46.706;12.340;2023-04-21T01:59:51;87045.41;;;7.52;60.49
21623;BME280;10973;46.706;12.340;2023-04-21T02:02:18;87050.25;;;7.50;60.01
21623;BME280;10973;46.706;12.340;2023-04-21T02:04:45;87046.06;;;7.42;60.36
21623;BME280;10973;46.706;12.340;2023-04-21T02:07:13;87046.03;;;7.38;60.38
21623;BME280;10973;46.706;12.340;2023-04-21T02:09:40;87048.66;;;7.42;60.39
21623;BME280;10973;46.706;12.340;2023-04-21T02:12:08;87043.75;;;7.37;60.82
21623;BME280;10973;46.706;12.340;2023-04-21T02:14:37;87041.13;;;7.37;61.00
21623;BME280;10973;46.706;12.340;2023-04-21T02:17:04;87043.41;;;7.38;60.71
21623;BME280;10973;46.706;12.340;2023-04-21T02:19:32;87049.78;;;7.41;60.61
21623;BME280;10973;46.706;12.340;2023-04-21T02:21:59;87043.03;;;7.40;60.65
21623;BME280;10973;46.706;12.340;2023-04-21T02:24:26;87044.13;;;7.39;60.52
21623;BME280;10973;46.706;12.340;2023-04-21T02:26:54;87041.13;;;7.37;60.61
21623;BME280;10973;46.706;12.340;2023-04-21T02:29:21;87035.50;;;7.35;60.93
21623;BME280;10973;46.706;12.340;2023-04-21T02:31:48;87039.25;;;7.37;60.96
21623;BME280;10973;46.706;12.340;2023-04-21T02:34:29;87041.44;;;7.32;61.20
21623;BME280;10973;46.706;12.340;2023-04-21T02:36:56;87041.84;;;7.34;61.15
21623;BME280;10973;46.706;12.340;2023-04-21T02:39:24;87049.28;;;7.28;61.13
21623;BME280;10973;46.706;12.340;2023-04-21T02:41:51;87050.38;;;7.27;61.08
21623;BME280;10973;46.706;12.340;2023-04-21T02:44:18;87047.38;;;7.25;60.95
21623;BME280;10973;46.706;12.340;2023-04-21T02:46:46;87047.41;;;7.29;60.96
21623;BME280;10973;46.706;12.340;2023-04-21T02:49:13;87052.59;;;7.25;61.38
21623;BME280;10973;46.706;12.340;2023-04-21T02:51:40;87042.84;;;7.22;61.20
21623;BME280;10973;46.706;12.340;2023-04-21T02:54:08;87039.16;;;7.27;60.92
21623;BME280;10973;46.706;12.340;2023-04-21T02:56:35;87045.81;;;7.20;61.13
21623;BME280;10973;46.706;12.340;2023-04-21T02:59:03;87040.97;;;7.22;61.09
21623;BME280;10973;46.706;12.340;2023-04-21T03:01:30;87035.72;;;7.22;61.11
21623;BME280;10973;46.706;12.340;2023-04-21T03:03:57;87042.88;;;7.26;61.02
21623;BME280;10973;46.706;12.340;2023-04-21T03:06:25;87042.13;;;7.25;60.95
21623;BME280;10973;46.706;12.340;2023-04-21T03:08:52;87046.63;;;7.25;61.02
21623;BME280;10973;46.706;12.340;2023-04-21T03:11:19;87042.88;;;7.26;60.91
21623;BME280;10973;46.706;12.340;2023-04-21T03:13:47;87043.25;;;7.24;60.85
21623;BME280;10973;46.706;12.340;2023-04-21T03:16:14;87047.38;;;7.25;60.66
21623;BME280;10973;46.706;12.340;2023-04-21T03:18:41;87046.25;;;7.26;60.39
21623;BME280;10973;46.706;12.340;2023-04-21T03:21:09;87042.88;;;7.26;60.32
21623;BME280;10973;46.706;12.340;2023-04-21T03:23:36;87042.09;;;7.22;60.43
21623;BME280;10973;46.706;12.340;2023-04-21T03:26:07;87046.56;;;7.21;60.26
21623;BME280;10973;46.706;12.340;2023-04-21T03:28:35;87041.66;;;7.16;60.37
21623;BME280;10973;46.706;12.340;2023-04-21T03:31:02;87040.88;;;7.15;60.39
21623;BME280;10973;46.706;12.340;2023-04-21T03:33:29;87049.16;;;7.17;60.60
21623;BME280;10973;46.706;12.340;2023-04-21T03:35:57;87049.91;;;7.18;60.86
21623;BME280;10973;46.706;12.340;2023-04-21T03:38:27;87054.75;;;7.16;60.98
21623;BME280;10973;46.706;12.340;2023-04-21T03:40:54;87053.25;;;7.15;60.89
21623;BME280;10973;46.706;12.340;2023-04-21T03:43:21;87061.44;;;7.13;61.05
21623;BME280;10973;46.706;12.340;2023-04-21T03:45:49;87055.47;;;7.13;60.77
21623;BME280;10973;46.706;12.340;2023-04-21T03:48:16;87050.97;;;7.13;61.10
21623;BME280;10973;46.706;12.340;2023-04-21T03:50:44;87056.22;;;7.13;61.03
21623;BME280;10973;46.706;12.340;2023-04-21T03:53:11;87056.22;;;7.13;61.06
21623;BME280;10973;46.706;12.340;2023-04-21T03:55:38;87053.19;;;7.11;61.22
21623;BME280;10973;46.706;12.340;2023-04-21T03:58:05;87050.56;;;7.11;61.17
21623;BME280;10973;46.706;12.340;2023-04-21T04:00:33;87048.69;;;7.08;61.03
21623;BME280;10973;46.706;12.340;2023-04-21T04:03:00;87052.03;;;7.09;61.08
21623;BME280;10973;46.706;12.340;2023-04-21T04:05:28;87052.00;;;7.05;61.38
21623;BME280;10973;46.706;12.340;2023-04-21T04:07:55;87056.56;;;7.08;61.40
21623;BME280;10973;46.706;12.340;2023-04-21T04:10:22;87049.03;;;7.07;61.17
21623;BME280;10973;46.706;12.340;2023-04-21T04:12:50;87053.56;;;7.10;60.99
21623;BME280;10973;46.706;12.340;2023-04-21T04:15:17;87061.03;;;7.08;61.19
21623;BME280;10973;46.706;12.340;2023-04-21T04:17:44;87059.56;;;7.10;61.19
21623;BME280;10973;46.706;12.340;2023-04-21T04:20:12;87058.75;;;7.06;61.38
21623;BME280;10973;46.706;12.340;2023-04-21T04:22:39;87061.38;;;7.06;61.44
21623;BME280;10973;46.706;12.340;2023-04-21T04:25:07;87064.75;;;7.07;61.50
21623;BME280;10973;46.706;12.340;2023-04-21T04:27:34;87067.72;;;7.05;61.31
21623;BME280;10973;46.706;12.340;2023-04-21T04:30:02;87076.28;;;7.02;61.41
21623;BME280;10973;46.706;12.340;2023-04-21T04:32:30;87071.44;;;7.04;61.51
21623;BME280;10973;46.706;12.340;2023-04-21T04:34:58;87070.34;;;7.05;61.58
21623;BME280;10973;46.706;12.340;2023-04-21T04:37:26;87074.06;;;7.04;61.61
21623;BME280;10973;46.706;12.340;2023-04-21T04:39:53;87076.34;;;7.06;61.63
21623;BME280;10973;46.706;12.340;2023-04-21T04:42:20;87077.84;;;7.07;61.36
21623;BME280;10973;46.706;12.340;2023-04-21T04:44:52;87081.63;;;7.09;61.59
21623;BME280;10973;46.706;12.340;2023-04-21T04:47:19;87083.44;;;7.05;61.66
21623;BME280;10973;46.706;12.340;2023-04-21T04:49:46;87087.22;;;7.08;61.56
21623;BME280;10973;46.706;12.340;2023-04-21T04:52:14;87082.78;;;7.12;61.92
21623;BME280;10973;46.706;12.340;2023-04-21T04:54:41;87086.16;;;7.12;61.47
21623;BME280;10973;46.706;12.340;2023-04-21T04:57:08;87083.16;;;7.10;61.58
21623;BME280;10973;46.706;12.340;2023-04-21T04:59:36;87085.00;;;7.10;61.50
21623;BME280;10973;46.706;12.340;2023-04-21T05:02:03;87088.38;;;7.10;61.38
21623;BME280;10973;46.706;12.340;2023-04-21T05:04:32;87087.63;;;7.10;61.63
21623;BME280;10973;46.706;12.340;2023-04-21T05:07:00;87091.34;;;7.09;61.59
21623;BME280;10973;46.706;12.340;2023-04-21T05:09:28;87089.88;;;7.11;61.67
21623;BME280;10973;46.706;12.340;2023-04-21T05:11:55;87095.50;;;7.13;61.63
21623;BME280;10973;46.706;12.340;2023-04-21T05:14:22;87094.41;;;7.14;61.96
21623;BME280;10973;46.706;12.340;2023-04-21T05:16:49;87099.28;;;7.16;61.73
21623;BME280;10973;46.706;12.340;2023-04-21T05:19:17;87099.69;;;7.18;61.44
21623;BME280;10973;46.706;12.340;2023-04-21T05:21:44;87099.34;;;7.19;61.48
21623;BME280;10973;46.706;12.340;2023-04-21T05:24:12;87101.25;;;7.22;61.09
21623;BME280;10973;46.706;12.340;2023-04-21T05:26:39;87099.75;;;7.22;61.41
21623;BME280;10973;46.706;12.340;2023-04-21T05:29:07;87097.88;;;7.22;61.71
21623;BME280;10973;46.706;12.340;2023-04-21T05:31:34;87097.91;;;7.26;61.79
21623;BME280;10973;46.706;12.340;2023-04-21T05:34:01;87103.53;;;7.24;61.63
21623;BME280;10973;46.706;12.340;2023-04-21T05:36:28;87107.28;;;7.27;61.57
21623;BME280;10973;46.706;12.340;2023-04-21T05:38:56;87107.94;;;7.20;61.57
21623;BME280;10973;46.706;12.340;2023-04-21T05:41:23;87108.38;;;7.22;61.39
21623;BME280;10973;46.706;12.340;2023-04-21T05:43:51;87113.25;;;7.24;61.47
21623;BME280;10973;46.706;12.340;2023-04-21T05:46:27;87111.78;;;7.26;61.54
21623;BME280;10973;46.706;12.340;2023-04-21T05:49:00;87110.31;;;7.29;61.70
21623;BME280;10973;46.706;12.340;2023-04-21T05:51:28;87115.97;;;7.34;61.52
21623;BME280;10973;46.706;12.340;2023-04-21T05:53:56;87120.53;;;7.37;61.64
21623;BME280;10973;46.706;12.340;2023-04-21T05:56:23;87116.81;;;7.42;61.73
21623;BME280;10973;46.706;12.340;2023-04-21T05:58:50;87106.72;;;7.44;61.68
21623;BME280;10973;46.706;12.340;2023-04-21T06:01:18;87102.66;;;7.46;61.48
21623;BME280;10973;46.706;12.340;2023-04-21T06:03:45;87113.91;;;7.50;61.58
21623;BME280;10973;46.706;12.340;2023-04-21T06:06:13;87111.69;;;7.52;61.66
21623;BME280;10973;46.706;12.340;2023-04-21T06:08:40;87106.84;;;7.54;61.11
21623;BME280;10973;46.706;12.340;2023-04-21T06:11:08;87109.91;;;7.60;61.40
21623;BME280;10973;46.706;12.340;2023-04-21T06:13:35;87112.56;;;7.63;61.97
21623;BME280;10973;46.706;12.340;2023-04-21T06:16:05;87102.16;;;7.70;61.65
21623;BME280;10973;46.706;12.340;2023-04-21T06:18:35;87108.59;;;7.76;61.31
21623;BME280;10973;46.706;12.340;2023-04-21T06:21:03;87106.69;;;7.77;60.94
21623;BME280;10973;46.706;12.340;2023-04-21T06:23:31;87106.69;;;7.77;60.55
21623;BME280;10973;46.706;12.340;2023-04-21T06:26:03;87105.25;;;7.79;60.72
21623;BME280;10973;46.706;12.340;2023-04-21T06:28:33;87108.22;;;7.78;60.82
21623;BME280;10973;46.706;12.340;2023-04-21T06:31:02;87110.09;;;7.77;60.47
21623;BME280;10973;46.706;12.340;2023-04-21T06:33:32;87110.47;;;7.79;60.52
21623;BME280;10973;46.706;12.340;2023-04-21T06:35:59;87112.41;;;7.82;60.58
21623;BME280;10973;46.706;12.340;2023-04-21T06:38:27;87112.84;;;7.88;60.87
21623;BME280;10973;46.706;12.340;2023-04-21T06:40:54;87110.16;;;7.84;61.31
21623;BME280;10973;46.706;12.340;2023-04-21T06:43:22;87110.59;;;7.90;61.35
21623;BME280;10973;46.706;12.340;2023-04-21T06:45:49;87107.63;;;7.91;61.03
21623;BME280;10973;46.706;12.340;2023-04-21T06:48:16;87112.16;;;7.95;61.18
21623;BME280;10973;46.706;12.340;2023-04-21T06:50:43;87108.47;;;8.03;61.14
21623;BME280;10973;46.706;12.340;2023-04-21T06:53:11;87114.88;;;8.09;60.74
21623;BME280;10973;46.706;12.340;2023-04-21T06:55:38;87110.41;;;8.09;60.77
21623;BME280;10973;46.706;12.340;2023-04-21T06:58:06;87114.16;;;8.12;60.74
21623;BME280;10973;46.706;12.340;2023-04-21T07:00:33;87111.53;;;8.12;61.16
21623;BME280;10973;46.706;12.340;2023-04-21T07:03:00;87112.72;;;8.18;61.02
21623;BME280;10973;46.706;12.340;2023-04-21T07:05:28;87111.25;;;8.20;61.30
21623;BME280;10973;46.706;12.340;2023-04-21T07:07:55;87114.31;;;8.26;61.38
21623;BME280;10973;46.706;12.340;2023-04-21T07:10:23;87124.13;;;8.29;61.28
21623;BME280;10973;46.706;12.340;2023-04-21T07:12:50;87117.38;;;8.31;60.47
21623;BME280;10973;46.706;12.340;2023-04-21T07:15:18;87111.00;;;8.29;60.42
21623;BME280;10973;46.706;12.340;2023-04-21T07:17:45;87117.78;;;8.37;60.21
21623;BME280;10973;46.706;12.340;2023-04-21T07:20:13;87126.44;;;8.41;60.31
21623;BME280;10973;46.706;12.340;2023-04-21T07:22:41;87122.00;;;8.45;60.42
21623;BME280;10973;46.706;12.340;2023-04-21T07:25:09;87123.13;;;8.47;60.32
21623;BME280;10973;46.706;12.340;2023-04-21T07:27:37;87124.66;;;8.52;60.46
21623;BME280;10973;46.706;12.340;2023-04-21T07:30:06;87119.78;;;8.50;60.75
21623;BME280;10973;46.706;12.340;2023-04-21T07:32:33;87122.84;;;8.59;60.44
21623;BME280;10973;46.706;12.340;2023-04-21T07:35:01;87121.34;;;8.58;60.48
21623;BME280;10973;46.706;12.340;2023-04-21T07:37:28;87119.91;;;8.65;60.06
21623;BME280;10973;46.706;12.340;2023-04-21T07:39:56;87128.59;;;8.72;59.83
21623;BME280;10973;46.706;12.340;2023-04-21T07:42:23;87121.50;;;8.80;59.77
21623;BME280;10973;46.706;12.340;2023-04-21T07:44:50;87128.28;;;8.84;59.72
21623;BME280;10973;46.706;12.340;2023-04-21T07:47:18;87128.31;;;8.88;59.48
21623;BME280;10973;46.706;12.340;2023-04-21T07:49:45;87126.03;;;8.86;59.38
21623;BME280;10973;46.706;12.340;2023-04-21T07:52:12;87125.38;;;8.96;59.11
21623;BME280;10973;46.706;12.340;2023-04-21T07:54:40;87131.34;;;8.93;59.28
21623;BME280;10973;46.706;12.340;2023-04-21T07:57:07;87133.25;;;9.00;59.17
21623;BME280;10973;46.706;12.340;2023-04-21T07:59:34;87128.75;;;9.00;59.09
21623;BME280;10973;46.706;12.340;2023-04-21T08:02:01;87128.03;;;9.07;59.08
21623;BME280;10973;46.706;12.340;2023-04-21T08:04:29;87138.22;;;9.08;59.39
21623;BME280;10973;46.706;12.340;2023-04-21T08:06:57;87140.84;;;9.08;59.46
21623;BME280;10973;46.706;12.340;2023-04-21T08:09:26;87131.88;;;9.16;59.73
21623;BME280;10973;46.706;12.340;2023-04-21T08:11:53;87135.59;;;9.15;60.08
21623;BME280;10973;46.706;12.340;2023-04-21T08:14:20;87134.91;;;9.22;59.94
21623;BME280;10973;46.706;12.340;2023-04-21T08:16:48;87143.53;;;9.22;59.87
21623;BME280;10973;46.706;12.340;2023-04-21T08:19:15;87140.94;;;9.26;59.70
21623;BME280;10973;46.706;12.340;2023-04-21T08:21:43;87136.78;;;9.21;59.44
21623;BME280;10973;46.706;12.340;2023-04-21T08:24:11;87145.06;;;9.27;59.54
21623;BME280;10973;46.706;12.340;2023-04-21T08:26:38;87144.28;;;9.23;60.07
21623;BME280;10973;46.706;12.340;2023-04-21T08:29:06;87142.38;;;9.20;59.92
21623;BME280;10973;46.706;12.340;2023-04-21T08:31:33;87151.03;;;9.17;60.12
21623;BME280;10973;46.706;12.340;2023-04-21T08:34:01;87144.25;;;9.16;60.11
21623;BME280;10973;46.706;12.340;2023-04-21T08:36:29;87150.66;;;9.18;60.03
21623;BME280;10973;46.706;12.340;2023-04-21T08:38:57;87153.28;;;9.15;60.71
21623;BME280;10973;46.706;12.340;2023-04-21T08:41:25;87149.13;;;9.14;60.52
21623;BME280;10973;46.706;12.340;2023-04-21T08:43:53;87154.34;;;9.07;61.04
21623;BME280;10973;46.706;12.340;2023-04-21T08:46:21;87155.91;;;9.15;61.08
21623;BME280;10973;46.706;12.340;2023-04-21T08:48:49;87160.81;;;9.23;60.77
21623;BME280;10973;46.706;12.340;2023-04-21T08:51:26;87159.34;;;9.26;60.27
21623;BME280;10973;46.706;12.340;2023-04-21T08:53:54;87166.88;;;9.31;60.64
21623;BME280;10973;46.706;12.340;2023-04-21T08:56:24;87160.13;;;9.30;60.89
21623;BME280;10973;46.706;12.340;2023-04-21T08:58:52;87163.88;;;9.36;60.81
21623;BME280;10973;46.706;12.340;2023-04-21T09:01:20;87164.25;;;9.31;60.66
21623;BME280;10973;46.706;12.340;2023-04-21T09:03:47;87163.94;;;9.43;60.65
21623;BME280;10973;46.706;12.340;2023-04-21T09:06:15;87164.41;;;9.59;60.10
21623;BME280;10973;46.706;12.340;2023-04-21T09:08:53;87166.31;;;9.66;59.98
21623;BME280;10973;46.706;12.340;2023-04-21T09:11:21;87164.06;;;9.68;59.88
21623;BME280;10973;46.706;12.340;2023-04-21T09:13:48;87168.22;;;9.76;59.38
21623;BME280;10973;46.706;12.340;2023-04-21T09:16:20;87167.84;;;9.77;59.01
21623;BME280;10973;46.706;12.340;2023-04-21T09:18:49;87171.63;;;9.80;58.35
21623;BME280;10973;46.706;12.340;2023-04-21T09:21:18;87172.78;;;9.79;57.69
21623;BME280;10973;46.706;12.340;2023-04-21T09:23:52;87179.16;;;9.81;57.79
21623;BME280;10973;46.706;12.340;2023-04-21T09:26:21;87175.78;;;9.81;57.93
21623;BME280;10973;46.706;12.340;2023-04-21T09:28:51;87172.78;;;9.79;57.95
21623;BME280;10973;46.706;12.340;2023-04-21T09:31:30;87175.41;;;9.86;57.68
21623;BME280;10973;46.706;12.340;2023-04-21T09:34:25;87174.28;;;9.90;58.36
21623;BME280;10973;46.706;12.340;2023-04-21T09:37:03;87171.31;;;9.95;58.74
21623;BME280;10973;46.706;12.340;2023-04-21T09:39:32;87179.25;;;10.06;57.99
21623;BME280;10973;46.706;12.340;2023-04-21T09:42:15;87176.25;;;10.07;57.50
21623;BME280;10973;46.706;12.340;2023-04-21T09:44:43;87172.88;;;10.11;57.08
21623;BME280;10973;46.706;12.340;2023-04-21T09:47:28;87171.78;;;10.12;56.86
21623;BME280;10973;46.706;12.340;2023-04-21T09:49:57;87169.13;;;10.12;57.22
21623;BME280;10973;46.706;12.340;2023-04-21T09:52:29;87178.50;;;10.09;56.46
21623;BME280;10973;46.706;12.340;2023-04-21T09:55:00;87168.72;;;10.06;55.47
21623;BME280;10973;46.706;12.340;2023-04-21T09:57:31;87167.22;;;10.01;55.43
21623;BME280;10973;46.706;12.340;2023-04-21T10:00:05;87170.19;;;9.96;56.29
21623;BME280;10973;46.706;12.340;2023-04-21T10:02:37;87178.47;;;10.02;56.03
21623;BME280;10973;46.706;12.340;2023-04-21T10:05:09;87173.97;;;10.02;56.68
21623;BME280;10973;46.706;12.340;2023-04-21T10:07:38;87174.34;;;10.04;56.69
21623;BME280;10973;46.706;12.340;2023-04-21T10:10:26;87174.72;;;10.03;57.20
21623;BME280;10973;46.706;12.340;2023-04-21T10:12:54;87175.47;;;10.00;57.75
21623;BME280;10973;46.706;12.340;2023-04-21T10:15:48;87175.50;;;10.03;57.48
21623;BME280;10973;46.706;12.340;2023-04-21T10:18:18;87171.69;;;9.97;57.76
21623;BME280;10973;46.706;12.340;2023-04-21T10:20:56;87176.22;;;10.00;58.20
21623;BME280;10973;46.706;12.340;2023-04-21T10:28:59;87181.06;;;9.95;59.10
21623;BME280;10973;46.706;12.340;2023-04-21T10:39:53;87169.94;;;10.26;59.96
21623;BME280;10973;46.706;12.340;2023-04-21T10:42:35;87171.84;;;10.33;59.49
21623;BME280;10973;46.706;12.340;2023-04-21T10:45:15;87170.69;;;10.34;58.35
21623;BME280;10973;46.706;12.340;2023-04-21T10:47:52;87167.31;;;10.37;57.98
21623;BME280;10973;46.706;12.340;2023-04-21T10:50:23;87168.09;;;10.41;58.05
21623;BME280;10973;46.706;12.340;2023-04-21T10:52:56;87174.50;;;10.50;58.11
21623;BME280;10973;46.706;12.340;2023-04-21T10:55:28;87165.81;;;10.43;57.18
21623;BME280;10973;46.706;12.340;2023-04-21T10:57:59;87184.28;;;10.36;57.67
21623;BME280;10973;46.706;12.340;2023-04-21T11:00:27;87175.22;;;10.30;57.84
21623;BME280;10973;46.706;12.340;2023-04-21T11:03:03;87171.81;;;10.29;57.49
21623;BME280;10973;46.706;12.340;2023-04-21T11:05:40;87169.56;;;10.24;56.99
21623;BME280;10973;46.706;12.340;2023-04-21T11:08:12;87171.03;;;10.18;56.95
21623;BME280;10973;46.706;12.340;2023-04-21T11:10:48;87178.97;;;10.25;56.93
21623;BME280;10973;46.706;12.340;2023-04-21T11:13:18;87174.44;;;10.22;57.09
21623;BME280;10973;46.706;12.340;2023-04-21T11:16:04;87182.34;;;10.15;56.84
21623;BME280;10973;46.706;12.340;2023-04-21T11:18:43;87178.91;;;10.11;56.78
21623;BME280;10973;46.706;12.340;2023-04-21T11:21:16;87176.56;;;9.95;57.72
21623;BME280;10973;46.706;12.340;2023-04-21T11:23:56;87176.19;;;9.90;57.74
21623;BME280;10973;46.706;12.340;2023-04-21T11:26:35;87182.16;;;9.80;57.60
21623;BME280;10973;46.706;12.340;2023-04-21T11:29:08;87185.50;;;9.73;57.83
21623;BME280;10973;46.706;12.340;2023-04-21T11:31:38;87187.00;;;9.67;58.01
21623;BME280;10973;46.706;12.340;2023-04-21T11:34:07;87191.44;;;9.56;57.68
21623;BME280;10973;46.706;12.340;2023-04-21T11:36:42;87192.56;;;9.52;57.77
21623;BME280;10973;46.706;12.340;2023-04-21T11:39:16;87197.00;;;9.44;57.96
21623;BME280;10973;46.706;12.340;2023-04-21T11:41:50;87190.13;;;9.25;57.72
21623;BME280;10973;46.706;12.340;2023-04-21T11:44:37;87197.59;;;9.20;58.00
21623;BME280;10973;46.706;12.340;2023-04-21T11:47:22;87202.84;;;9.20;57.88
21623;BME280;10973;46.706;12.340;2023-04-21T11:50:00;87200.53;;;9.11;57.88
21623;BME280;10973;46.706;12.340;2023-04-21T11:52:32;87191.50;;;9.09;58.37
21623;BME280;10973;46.706;12.340;2023-04-21T11:55:14;87198.69;;;9.12;58.78
21623;BME280;10973;46.706;12.340;2023-04-21T11:57:43;87195.34;;;9.15;58.97
21623;BME280;10973;46.706;12.340;2023-04-21T12:00:22;87196.50;;;9.21;59.12
21623;BME280;10973;46.706;12.340;2023-04-21T12:02:56;87189.75;;;9.27;58.51
21623;BME280;10973;46.706;12.340;2023-04-21T12:05:33;87195.44;;;9.29;58.46
21623;BME280;10973;46.706;12.340;2023-04-21T12:08:01;87194.72;;;9.36;58.34
21623;BME280;10973;46.706;12.340;2023-04-21T12:10:29;87199.25;;;9.42;58.24
21623;BME280;10973;46.706;12.340;2023-04-21T12:12:59;87197.75;;;9.41;58.08
21623;BME280;10973;46.706;12.340;2023-04-21T12:15:31;87201.13;;;9.45;57.73
21623;BME280;10973;46.706;12.340;2023-04-21T12:17:58;87198.53;;;9.49;57.77
21623;BME280;10973;46.706;12.340;2023-04-21T12:20:28;87205.28;;;9.50;57.77
21623;BME280;10973;46.706;12.340;2023-04-21T12:22:58;87206.81;;;9.54;57.56
21623;BME280;10973;46.706;12.340;2023-04-21T12:25:34;87205.72;;;9.52;58.17
21623;BME280;10973;46.706;12.340;2023-04-21T12:28:02;87205.00;;;9.62;57.83
21623;BME280;10973;46.706;12.340;2023-04-21T12:30:29;87206.94;;;9.72;57.85
21623;BME280;10973;46.706;12.340;2023-04-21T12:32:56;87205.06;;;9.76;58.46
21623;BME280;10973;46.706;12.340;2023-04-21T12:35:25;87203.28;;;9.94;58.69
21623;BME280;10973;46.706;12.340;2023-04-21T12:37:52;87210.16;;;10.13;58.93
21623;BME280;10973;46.706;12.340;2023-04-21T12:40:20;87200.06;;;10.29;58.99
21623;BME280;10973;46.706;12.340;2023-04-21T12:42:47;87203.88;;;10.49;58.11
21623;BME280;10973;46.706;12.340;2023-04-21T12:45:14;87195.25;;;10.91;58.12
21623;BME280;10973;46.706;12.340;2023-04-21T12:47:42;87205.81;;;11.29;57.95
21623;BME280;10973;46.706;12.340;2023-04-21T12:50:13;87196.75;;;11.73;57.12
21623;BME280;10973;46.706;12.340;2023-04-21T12:52:42;87193.97;;;12.18;56.56
21623;BME280;10973;46.706;12.340;2023-04-21T12:55:10;87191.50;;;12.59;56.16
21623;BME280;10973;46.706;12.340;2023-04-21T12:57:38;87183.81;;;12.86;53.69
21623;BME280;10973;46.706;12.340;2023-04-21T13:00:06;87185.25;;;12.98;53.43
21623;BME280;10973;46.706;12.340;2023-04-21T13:02:33;87179.13;;;13.11;53.13
21623;BME280;10973;46.706;12.340;2023-04-21T13:05:01;87176.28;;;13.36;52.68
21623;BME280;10973;46.706;12.340;2023-04-21T13:07:29;87167.78;;;13.58;51.44
21623;BME280;10973;46.706;12.340;2023-04-21T13:09:56;87171.88;;;13.67;51.05
21623;BME280;10973;46.706;12.340;2023-04-21T13:12:24;87165.75;;;13.73;49.84
21623;BME280;10973;46.706;12.340;2023-04-21T13:14:54;87169.19;;;13.70;49.35
21623;BME280;10973;46.706;12.340;2023-04-21T13:17:22;87171.94;;;13.59;49.17
21623;BME280;10973;46.706;12.340;2023-04-21T13:19:49;87172.81;;;13.46;48.81
21623;BME280;10973;46.706;12.340;2023-04-21T13:22:17;87169.97;;;13.23;47.90